sensor_id;sensor_type;location;lat;lon;timestamp;P1;durP1;ratioP1;P2;durP2;ratioP2
5912;SDS011;2982;42.684;23.356;2023-07-29T00:00:25;3.10;;;2.65;;
5912;SDS011;2982;42.684;23.356;2023-07-29T00:02:51;6.32;;;2.65;;
5912;SDS011;2982;42.684;23.356;2023-07-29T00:05:16;2.45;;;2.25;;
5912;SDS011;2982;42.684;23.356;2023-07-29T00:07:41;4.80;;;2.33;;
5912;SDS011;2982;42.684;23.356;2023-07-29T00:10:07;3.35;;;2.83;;
5912;SDS011;2982;42.684;23.356;2023-07-29T00:12:32;2.95;;;2.20;;
5912;SDS011;2982;42.684;23.356;2023-07-29T00:14:57;4.05;;;2.83;;
5912;SDS011;2982;42.684;23.356;2023-07-29T00:17:23;2.55;;;2.38;;
5912;SDS011;2982;42.684;23.356;2023-07-29T00:19:48;2.58;;;2.38;;
5912;SDS011;2982;42.684;23.356;2023-07-29T00:22:13;4.03;;;2.50;;
5912;SDS011;2982;42.684;23.356;2023-07-29T00:24:39;2.00;;;1.90;;
5912;SDS011;2982;42.684;23.356;2023-07-29T00:27:04;2.80;;;2.60;;
5912;SDS011;2982;42.684;23.356;2023-07-29T00:29:30;3.05;;;2.05;;
5912;SDS011;2982;42.684;23.356;2023-07-29T00:31:55;2.58;;;2.40;;
5912;SDS011;2982;42.684;23.356;2023-07-29T00:34:20;2.65;;;2.45;;
5912;SDS011;2982;42.684;23.356;2023-07-29T00:36:46;2.45;;;2.35;;
5912;SDS011;2982;42.684;23.356;2023-07-29T00:39:11;4.65;;;2.75;;
5912;SDS011;2982;42.684;23.356;2023-07-29T00:41:36;2.25;;;2.10;;
5912;SDS011;2982;42.684;23.356;2023-07-29T00:44:02;2.95;;;2.42;;
5912;SDS011;2982;42.684;23.356;2023-07-29T00:46:28;5.20;;;2.45;;
5912;SDS011;2982;42.684;23.356;2023-07-29T00:48:53;3.28;;;2.45;;
5912;SDS011;2982;42.684;23.356;2023-07-29T00:51:19;4.20;;;2.65;;
5912;SDS011;2982;42.684;23.356;2023-07-29T00:53:44;2.63;;;2.42;;
5912;SDS011;2982;42.684;23.356;2023-07-29T00:56:09;6.38;;;2.28;;
5912;SDS011;2982;42.684;23.356;2023-07-29T00:58:35;2.97;;;2.47;;
5912;SDS011;2982;42.684;23.356;2023-07-29T01:01:00;3.42;;;2.58;;
5912;SDS011;2982;42.684;23.356;2023-07-29T01:03:25;4.80;;;2.63;;
5912;SDS011;2982;42.684;23.356;2023-07-29T01:08:46;2.20;;;2.10;;
5912;SDS011;2982;42.684;23.356;2023-07-29T01:11:38;3.20;;;2.88;;
5912;SDS011;2982;42.684;23.356;2023-07-29T01:14:46;7.05;;;2.95;;
5912;SDS011;2982;42.684;23.356;2023-07-29T01:17:25;4.05;;;2.90;;
5912;SDS011;2982;42.684;23.356;2023-07-29T01:22:26;2.90;;;2.70;;
5912;SDS011;2982;42.684;23.356;2023-07-29T01:24:52;3.63;;;2.55;;
5912;SDS011;2982;42.684;23.356;2023-07-29T01:27:18;3.00;;;2.70;;
5912;SDS011;2982;42.684;23.356;2023-07-29T01:29:43;2.72;;;2.15;;
5912;SDS011;2982;42.684;23.356;2023-07-29T01:32:14;3.03;;;2.53;;
5912;SDS011;2982;42.684;23.356;2023-07-29T01:35:15;2.80;;;2.60;;
5912;SDS011;2982;42.684;23.356;2023-07-29T01:37:49;2.42;;;2.33;;
5912;SDS011;2982;42.684;23.356;2023-07-29T01:40:20;2.95;;;2.60;;
5912;SDS011;2982;42.684;23.356;2023-07-29T01:42:47;3.28;;;2.50;;
5912;SDS011;2982;42.684;23.356;2023-07-29T01:45:13;3.25;;;2.95;;
5912;SDS011;2982;42.684;23.356;2023-07-29T01:47:39;4.05;;;2.90;;
5912;SDS011;2982;42.684;23.356;2023-07-29T01:50:04;5.68;;;2.55;;
5912;SDS011;2982;42.684;23.356;2023-07-29T01:52:30;2.65;;;2.42;;
5912;SDS011;2982;42.684;23.356;2023-07-29T01:54:55;5.50;;;2.83;;
5912;SDS011;2982;42.684;23.356;2023-07-29T01:57:21;2.30;;;2.20;;
5912;SDS011;2982;42.684;23.356;2023-07-29T01:59:46;3.13;;;2.92;;
5912;SDS011;2982;42.684;23.356;2023-07-29T02:02:11;2.85;;;2.67;;
5912;SDS011;2982;42.684;23.356;2023-07-29T02:04:36;8.50;;;2.47;;
5912;SDS011;2982;42.684;23.356;2023-07-29T02:07:02;2.65;;;2.45;;
5912;SDS011;2982;42.684;23.356;2023-07-29T02:09:27;3.08;;;2.80;;
5912;SDS011;2982;42.684;23.356;2023-07-29T02:11:52;2.50;;;2.30;;
5912;SDS011;2982;42.684;23.356;2023-07-29T02:14:17;4.05;;;2.90;;
5912;SDS011;2982;42.684;23.356;2023-07-29T02:16:43;2.42;;;2.22;;
5912;SDS011;2982;42.684;23.356;2023-07-29T02:19:08;3.30;;;2.88;;
5912;SDS011;2982;42.684;23.356;2023-07-29T02:21:33;2.88;;;2.65;;
5912;SDS011;2982;42.684;23.356;2023-07-29T02:23:58;2.83;;;2.45;;
5912;SDS011;2982;42.684;23.356;2023-07-29T02:26:24;3.22;;;2.30;;
5912;SDS011;2982;42.684;23.356;2023-07-29T02:28:49;5.10;;;2.83;;
5912;SDS011;2982;42.684;23.356;2023-07-29T02:31:16;4.18;;;2.47;;
5912;SDS011;2982;42.684;23.356;2023-07-29T02:33:43;3.30;;;2.78;;
5912;SDS011;2982;42.684;23.356;2023-07-29T02:36:08;4.35;;;3.42;;
5912;SDS011;2982;42.684;23.356;2023-07-29T02:38:34;5.65;;;3.15;;
5912;SDS011;2982;42.684;23.356;2023-07-29T02:40:59;3.10;;;2.90;;
5912;SDS011;2982;42.684;23.356;2023-07-29T02:43:24;3.05;;;2.85;;
5912;SDS011;2982;42.684;23.356;2023-07-29T02:45:50;2.88;;;2.67;;
5912;SDS011;2982;42.684;23.356;2023-07-29T02:48:15;3.13;;;2.92;;
5912;SDS011;2982;42.684;23.356;2023-07-29T02:50:40;2.78;;;2.63;;
5912;SDS011;2982;42.684;23.356;2023-07-29T02:53:05;2.83;;;2.50;;
5912;SDS011;2982;42.684;23.356;2023-07-29T02:55:31;3.42;;;3.13;;
5912;SDS011;2982;42.684;23.356;2023-07-29T02:57:56;5.18;;;2.75;;
5912;SDS011;2982;42.684;23.356;2023-07-29T03:00:21;2.58;;;2.45;;
5912;SDS011;2982;42.684;23.356;2023-07-29T03:02:46;2.95;;;2.75;;
5912;SDS011;2982;42.684;23.356;2023-07-29T03:05:12;4.18;;;3.17;;
5912;SDS011;2982;42.684;23.356;2023-07-29T03:07:37;3.42;;;3.22;;
5912;SDS011;2982;42.684;23.356;2023-07-29T03:10:02;3.25;;;2.95;;
5912;SDS011;2982;42.684;23.356;2023-07-29T03:12:28;3.67;;;3.40;;
5912;SDS011;2982;42.684;23.356;2023-07-29T03:14:53;2.80;;;2.60;;
5912;SDS011;2982;42.684;23.356;2023-07-29T03:17:18;4.72;;;3.58;;
5912;SDS011;2982;42.684;23.356;2023-07-29T03:19:43;4.35;;;3.42;;
5912;SDS011;2982;42.684;23.356;2023-07-29T03:22:09;3.47;;;3.20;;
5912;SDS011;2982;42.684;23.356;2023-07-29T03:24:34;4.85;;;3.25;;
5912;SDS011;2982;42.684;23.356;2023-07-29T03:26:59;2.85;;;2.65;;
5912;SDS011;2982;42.684;23.356;2023-07-29T03:29:25;5.72;;;3.15;;
5912;SDS011;2982;42.684;23.356;2023-07-29T03:31:50;3.58;;;3.28;;
5912;SDS011;2982;42.684;23.356;2023-07-29T03:34:15;4.47;;;3.85;;
5912;SDS011;2982;42.684;23.356;2023-07-29T03:36:41;3.25;;;3.03;;
5912;SDS011;2982;42.684;23.356;2023-07-29T03:39:06;5.78;;;3.13;;
5912;SDS011;2982;42.684;23.356;2023-07-29T03:41:31;5.15;;;3.13;;
5912;SDS011;2982;42.684;23.356;2023-07-29T03:43:56;3.03;;;2.83;;
5912;SDS011;2982;42.684;23.356;2023-07-29T03:46:22;3.40;;;3.20;;
5912;SDS011;2982;42.684;23.356;2023-07-29T03:48:47;3.50;;;3.30;;
5912;SDS011;2982;42.684;23.356;2023-07-29T03:51:12;4.03;;;2.55;;
5912;SDS011;2982;42.684;23.356;2023-07-29T03:53:38;4.80;;;3.40;;
5912;SDS011;2982;42.684;23.356;2023-07-29T03:56:03;3.78;;;3.17;;
5912;SDS011;2982;42.684;23.356;2023-07-29T03:58:29;3.80;;;3.50;;
5912;SDS011;2982;42.684;23.356;2023-07-29T04:00:54;3.35;;;3.15;;
5912;SDS011;2982;42.684;23.356;2023-07-29T04:03:19;3.40;;;3.10;;
5912;SDS011;2982;42.684;23.356;2023-07-29T04:05:44;3.33;;;3.13;;
5912;SDS011;2982;42.684;23.356;2023-07-29T04:08:10;4.00;;;3.80;;
5912;SDS011;2982;42.684;23.356;2023-07-29T04:10:35;3.95;;;3.60;;
5912;SDS011;2982;42.684;23.356;2023-07-29T04:13:00;3.80;;;3.50;;
5912;SDS011;2982;42.684;23.356;2023-07-29T04:15:26;3.53;;;3.30;;
5912;SDS011;2982;42.684;23.356;2023-07-29T04:17:51;4.45;;;3.05;;
5912;SDS011;2982;42.684;23.356;2023-07-29T04:20:16;3.53;;;2.88;;
5912;SDS011;2982;42.684;23.356;2023-07-29T04:22:41;4.10;;;3.08;;
5912;SDS011;2982;42.684;23.356;2023-07-29T04:25:07;3.80;;;3.60;;
5912;SDS011;2982;42.684;23.356;2023-07-29T04:27:32;3.20;;;2.78;;
5912;SDS011;2982;42.684;23.356;2023-07-29T04:29:57;5.13;;;2.58;;
5912;SDS011;2982;42.684;23.356;2023-07-29T04:32:23;3.53;;;3.13;;
5912;SDS011;2982;42.684;23.356;2023-07-29T04:34:48;3.13;;;2.78;;
5912;SDS011;2982;42.684;23.356;2023-07-29T04:37:13;2.80;;;2.60;;
5912;SDS011;2982;42.684;23.356;2023-07-29T04:39:38;3.60;;;3.17;;
5912;SDS011;2982;42.684;23.356;2023-07-29T04:42:04;4.82;;;2.67;;
5912;SDS011;2982;42.684;23.356;2023-07-29T04:44:29;6.88;;;3.35;;
5912;SDS011;2982;42.684;23.356;2023-07-29T04:46:55;4.50;;;3.00;;
5912;SDS011;2982;42.684;23.356;2023-07-29T04:49:20;7.47;;;2.65;;
5912;SDS011;2982;42.684;23.356;2023-07-29T04:51:45;4.65;;;2.92;;
5912;SDS011;2982;42.684;23.356;2023-07-29T04:54:10;6.45;;;3.58;;
5912;SDS011;2982;42.684;23.356;2023-07-29T04:56:36;3.15;;;3.00;;
5912;SDS011;2982;42.684;23.356;2023-07-29T04:59:01;3.88;;;3.05;;
5912;SDS011;2982;42.684;23.356;2023-07-29T05:01:26;3.28;;;3.08;;
5912;SDS011;2982;42.684;23.356;2023-07-29T05:03:51;4.82;;;3.17;;
5912;SDS011;2982;42.684;23.356;2023-07-29T05:06:17;2.83;;;2.63;;
5912;SDS011;2982;42.684;23.356;2023-07-29T05:08:42;2.97;;;2.70;;
5912;SDS011;2982;42.684;23.356;2023-07-29T05:11:07;3.70;;;2.65;;
5912;SDS011;2982;42.684;23.356;2023-07-29T05:13:33;2.60;;;2.50;;
5912;SDS011;2982;42.684;23.356;2023-07-29T05:15:58;4.32;;;2.65;;
5912;SDS011;2982;42.684;23.356;2023-07-29T05:18:23;5.05;;;3.13;;
5912;SDS011;2982;42.684;23.356;2023-07-29T05:20:48;5.00;;;2.95;;
5912;SDS011;2982;42.684;23.356;2023-07-29T05:23:14;5.10;;;2.90;;
5912;SDS011;2982;42.684;23.356;2023-07-29T05:25:39;6.10;;;3.10;;
5912;SDS011;2982;42.684;23.356;2023-07-29T05:28:04;4.20;;;2.83;;
5912;SDS011;2982;42.684;23.356;2023-07-29T05:30:30;3.17;;;2.83;;
5912;SDS011;2982;42.684;23.356;2023-07-29T05:32:57;4.22;;;2.42;;
5912;SDS011;2982;42.684;23.356;2023-07-29T05:35:23;2.33;;;2.22;;
5912;SDS011;2982;42.684;23.356;2023-07-29T05:37:48;4.00;;;2.83;;
5912;SDS011;2982;42.684;23.356;2023-07-29T05:40:14;2.85;;;2.45;;
5912;SDS011;2982;42.684;23.356;2023-07-29T05:42:39;2.95;;;2.63;;
5912;SDS011;2982;42.684;23.356;2023-07-29T05:45:05;2.92;;;2.72;;
5912;SDS011;2982;42.684;23.356;2023-07-29T05:47:31;3.42;;;2.63;;
5912;SDS011;2982;42.684;23.356;2023-07-29T05:49:56;3.20;;;2.35;;
5912;SDS011;2982;42.684;23.356;2023-07-29T05:52:21;3.72;;;2.45;;
5912;SDS011;2982;42.684;23.356;2023-07-29T05:54:46;3.30;;;3.00;;
5912;SDS011;2982;42.684;23.356;2023-07-29T05:57:12;3.45;;;2.97;;
5912;SDS011;2982;42.684;23.356;2023-07-29T05:59:37;3.17;;;2.95;;
5912;SDS011;2982;42.684;23.356;2023-07-29T06:02:03;3.97;;;2.70;;
5912;SDS011;2982;42.684;23.356;2023-07-29T06:04:29;2.88;;;2.67;;
5912;SDS011;2982;42.684;23.356;2023-07-29T06:06:54;4.68;;;3.05;;
5912;SDS011;2982;42.684;23.356;2023-07-29T06:09:20;3.58;;;2.97;;
5912;SDS011;2982;42.684;23.356;2023-07-29T06:11:45;5.18;;;3.25;;
5912;SDS011;2982;42.684;23.356;2023-07-29T06:14:10;2.90;;;2.70;;
5912;SDS011;2982;42.684;23.356;2023-07-29T06:16:35;7.53;;;3.30;;
5912;SDS011;2982;42.684;23.356;2023-07-29T06:19:01;4.60;;;2.50;;
5912;SDS011;2982;42.684;23.356;2023-07-29T06:21:26;2.45;;;2.35;;
5912;SDS011;2982;42.684;23.356;2023-07-29T06:23:51;3.47;;;2.90;;
5912;SDS011;2982;42.684;23.356;2023-07-29T06:26:17;8.00;;;3.38;;
5912;SDS011;2982;42.684;23.356;2023-07-29T06:28:42;3.70;;;3.40;;
5912;SDS011;2982;42.684;23.356;2023-07-29T06:31:07;6.47;;;3.33;;
5912;SDS011;2982;42.684;23.356;2023-07-29T06:33:32;3.80;;;3.40;;
5912;SDS011;2982;42.684;23.356;2023-07-29T06:35:58;8.13;;;3.85;;
5912;SDS011;2982;42.684;23.356;2023-07-29T06:38:23;5.47;;;3.20;;
5912;SDS011;2982;42.684;23.356;2023-07-29T06:40:48;4.53;;;3.65;;
5912;SDS011;2982;42.684;23.356;2023-07-29T06:43:14;5.47;;;3.60;;
5912;SDS011;2982;42.684;23.356;2023-07-29T06:45:39;3.92;;;3.45;;
5912;SDS011;2982;42.684;23.356;2023-07-29T06:48:04;6.38;;;3.35;;
5912;SDS011;2982;42.684;23.356;2023-07-29T06:50:30;7.55;;;4.03;;
5912;SDS011;2982;42.684;23.356;2023-07-29T06:52:55;5.18;;;3.47;;
5912;SDS011;2982;42.684;23.356;2023-07-29T06:55:20;5.53;;;3.10;;
5912;SDS011;2982;42.684;23.356;2023-07-29T06:57:46;5.70;;;3.42;;
5912;SDS011;2982;42.684;23.356;2023-07-29T07:00:11;4.47;;;3.65;;
5912;SDS011;2982;42.684;23.356;2023-07-29T07:02:36;14.02;;;4.18;;
5912;SDS011;2982;42.684;23.356;2023-07-29T07:05:02;6.88;;;3.67;;
5912;SDS011;2982;42.684;23.356;2023-07-29T07:07:27;3.97;;;3.45;;
5912;SDS011;2982;42.684;23.356;2023-07-29T07:09:52;3.47;;;3.28;;
5912;SDS011;2982;42.684;23.356;2023-07-29T07:12:18;5.00;;;3.53;;
5912;SDS011;2982;42.684;23.356;2023-07-29T07:14:43;6.78;;;3.75;;
5912;SDS011;2982;42.684;23.356;2023-07-29T07:17:08;9.85;;;4.03;;
5912;SDS011;2982;42.684;23.356;2023-07-29T07:19:33;4.43;;;3.60;;
5912;SDS011;2982;42.684;23.356;2023-07-29T07:21:59;7.35;;;3.70;;
5912;SDS011;2982;42.684;23.356;2023-07-29T07:24:24;11.32;;;3.95;;
5912;SDS011;2982;42.684;23.356;2023-07-29T07:26:49;6.28;;;3.10;;
5912;SDS011;2982;42.684;23.356;2023-07-29T07:29:14;5.07;;;3.38;;
5912;SDS011;2982;42.684;23.356;2023-07-29T07:31:40;6.65;;;3.28;;
5912;SDS011;2982;42.684;23.356;2023-07-29T07:34:05;4.43;;;4.03;;
5912;SDS011;2982;42.684;23.356;2023-07-29T07:36:30;7.05;;;4.03;;
5912;SDS011;2982;42.684;23.356;2023-07-29T07:38:56;4.45;;;4.10;;
5912;SDS011;2982;42.684;23.356;2023-07-29T07:41:21;9.57;;;3.80;;
5912;SDS011;2982;42.684;23.356;2023-07-29T07:43:47;7.05;;;3.88;;
5912;SDS011;2982;42.684;23.356;2023-07-29T07:46:12;5.18;;;4.03;;
5912;SDS011;2982;42.684;23.356;2023-07-29T07:48:38;4.32;;;3.70;;
5912;SDS011;2982;42.684;23.356;2023-07-29T07:51:13;6.65;;;3.90;;
5912;SDS011;2982;42.684;23.356;2023-07-29T07:53:38;4.45;;;3.60;;
5912;SDS011;2982;42.684;23.356;2023-07-29T07:56:04;8.23;;;3.63;;
5912;SDS011;2982;42.684;23.356;2023-07-29T07:58:29;4.40;;;3.08;;
5912;SDS011;2982;42.684;23.356;2023-07-29T08:01:04;8.95;;;3.53;;
5912;SDS011;2982;42.684;23.356;2023-07-29T08:03:30;6.38;;;3.15;;
5912;SDS011;2982;42.684;23.356;2023-07-29T08:05:56;3.30;;;3.10;;
5912;SDS011;2982;42.684;23.356;2023-07-29T08:08:21;3.67;;;3.35;;
5912;SDS011;2982;42.684;23.356;2023-07-29T08:10:46;3.67;;;3.20;;
5912;SDS011;2982;42.684;23.356;2023-07-29T08:13:12;4.50;;;2.90;;
5912;SDS011;2982;42.684;23.356;2023-07-29T08:15:37;5.78;;;3.13;;
5912;SDS011;2982;42.684;23.356;2023-07-29T08:18:02;6.10;;;3.10;;
5912;SDS011;2982;42.684;23.356;2023-07-29T08:20:28;4.10;;;2.95;;
5912;SDS011;2982;42.684;23.356;2023-07-29T08:22:53;4.40;;;2.78;;
5912;SDS011;2982;42.684;23.356;2023-07-29T08:25:18;3.22;;;2.78;;
5912;SDS011;2982;42.684;23.356;2023-07-29T08:27:43;4.07;;;2.97;;
5912;SDS011;2982;42.684;23.356;2023-07-29T08:30:09;4.07;;;2.83;;
5912;SDS011;2982;42.684;23.356;2023-07-29T08:32:34;3.05;;;2.85;;
5912;SDS011;2982;42.684;23.356;2023-07-29T08:34:59;2.83;;;2.40;;
5912;SDS011;2982;42.684;23.356;2023-07-29T08:37:25;4.63;;;2.40;;
5912;SDS011;2982;42.684;23.356;2023-07-29T08:39:50;2.28;;;2.17;;
5912;SDS011;2982;42.684;23.356;2023-07-29T08:42:15;2.95;;;2.47;;
5912;SDS011;2982;42.684;23.356;2023-07-29T08:44:44;6.07;;;2.60;;
5912;SDS011;2982;42.684;23.356;2023-07-29T08:47:11;2.45;;;2.08;;
5912;SDS011;2982;42.684;23.356;2023-07-29T08:49:37;2.17;;;2.03;;
5912;SDS011;2982;42.684;23.356;2023-07-29T08:52:03;2.40;;;2.20;;
5912;SDS011;2982;42.684;23.356;2023-07-29T08:54:29;2.15;;;1.80;;
5912;SDS011;2982;42.684;23.356;2023-07-29T08:56:55;2.75;;;2.08;;
5912;SDS011;2982;42.684;23.356;2023-07-29T08:59:21;2.78;;;1.92;;
5912;SDS011;2982;42.684;23.356;2023-07-29T09:01:47;2.92;;;1.75;;
5912;SDS011;2982;42.684;23.356;2023-07-29T09:04:13;3.00;;;1.65;;
5912;SDS011;2982;42.684;23.356;2023-07-29T09:06:39;1.60;;;1.50;;
5912;SDS011;2982;42.684;23.356;2023-07-29T09:09:04;2.20;;;2.03;;
5912;SDS011;2982;42.684;23.356;2023-07-29T09:11:32;1.42;;;1.33;;
5912;SDS011;2982;42.684;23.356;2023-07-29T09:13:57;2.00;;;1.80;;
5912;SDS011;2982;42.684;23.356;2023-07-29T09:16:23;2.65;;;1.90;;
5912;SDS011;2982;42.684;23.356;2023-07-29T09:18:50;2.28;;;2.00;;
5912;SDS011;2982;42.684;23.356;2023-07-29T09:21:16;4.40;;;1.75;;
5912;SDS011;2982;42.684;23.356;2023-07-29T09:23:42;3.08;;;1.48;;
5912;SDS011;2982;42.684;23.356;2023-07-29T09:26:08;1.60;;;1.50;;
5912;SDS011;2982;42.684;23.356;2023-07-29T09:28:35;2.25;;;1.30;;
5912;SDS011;2982;42.684;23.356;2023-07-29T09:31:02;1.20;;;1.20;;
5912;SDS011;2982;42.684;23.356;2023-07-29T09:33:28;1.40;;;1.30;;
5912;SDS011;2982;42.684;23.356;2023-07-29T09:35:54;3.60;;;1.30;;
5912;SDS011;2982;42.684;23.356;2023-07-29T09:38:25;1.77;;;1.05;;
5912;SDS011;2982;42.684;23.356;2023-07-29T09:40:57;2.40;;;1.05;;
5912;SDS011;2982;42.684;23.356;2023-07-29T09:43:28;2.58;;;1.02;;
5912;SDS011;2982;42.684;23.356;2023-07-29T09:45:54;1.00;;;1.00;;
5912;SDS011;2982;42.684;23.356;2023-07-29T09:48:23;1.77;;;1.05;;
5912;SDS011;2982;42.684;23.356;2023-07-29T09:50:48;0.95;;;0.88;;
5912;SDS011;2982;42.684;23.356;2023-07-29T09:53:13;1.13;;;0.93;;
5912;SDS011;2982;42.684;23.356;2023-07-29T09:55:39;0.73;;;0.73;;
5912;SDS011;2982;42.684;23.356;2023-07-29T09:58:05;1.63;;;0.82;;
5912;SDS011;2982;42.684;23.356;2023-07-29T10:00:31;0.90;;;0.90;;
5912;SDS011;2982;42.684;23.356;2023-07-29T10:02:57;1.77;;;1.00;;
5912;SDS011;2982;42.684;23.356;2023-07-29T10:05:25;0.90;;;0.90;;
5912;SDS011;2982;42.684;23.356;2023-07-29T10:07:51;1.10;;;0.98;;
5912;SDS011;2982;42.684;23.356;2023-07-29T10:10:17;2.10;;;0.90;;
5912;SDS011;2982;42.684;23.356;2023-07-29T10:12:43;0.80;;;0.80;;
5912;SDS011;2982;42.684;23.356;2023-07-29T10:15:09;1.27;;;0.93;;
5912;SDS011;2982;42.684;23.356;2023-07-29T10:17:35;0.90;;;0.88;;
5912;SDS011;2982;42.684;23.356;2023-07-29T10:20:03;0.70;;;0.70;;
5912;SDS011;2982;42.684;23.356;2023-07-29T10:22:33;1.50;;;1.10;;
5912;SDS011;2982;42.684;23.356;2023-07-29T10:25:06;2.80;;;0.95;;
5912;SDS011;2982;42.684;23.356;2023-07-29T10:27:35;2.50;;;1.10;;
5912;SDS011;2982;42.684;23.356;2023-07-29T10:30:28;4.10;;;0.95;;
5912;SDS011;2982;42.684;23.356;2023-07-29T10:32:53;0.98;;;0.88;;
5912;SDS011;2982;42.684;23.356;2023-07-29T10:35:23;1.00;;;0.75;;
5912;SDS011;2982;42.684;23.356;2023-07-29T10:37:48;1.40;;;0.80;;
5912;SDS011;2982;42.684;23.356;2023-07-29T10:40:13;0.70;;;0.70;;
5912;SDS011;2982;42.684;23.356;2023-07-29T10:42:39;1.17;;;1.05;;
5912;SDS011;2982;42.684;23.356;2023-07-29T10:45:24;1.20;;;0.70;;
5912;SDS011;2982;42.684;23.356;2023-07-29T10:47:50;1.52;;;0.82;;
5912;SDS011;2982;42.684;23.356;2023-07-29T10:50:19;1.35;;;0.57;;
5912;SDS011;2982;42.684;23.356;2023-07-29T10:52:50;0.70;;;0.70;;
5912;SDS011;2982;42.684;23.356;2023-07-29T10:55:27;0.88;;;0.80;;
5912;SDS011;2982;42.684;23.356;2023-07-29T10:58:14;4.40;;;0.70;;
5912;SDS011;2982;42.684;23.356;2023-07-29T11:00:43;1.52;;;0.65;;
5912;SDS011;2982;42.684;23.356;2023-07-29T11:03:11;3.60;;;0.98;;
5912;SDS011;2982;42.684;23.356;2023-07-29T11:05:44;1.85;;;0.80;;
5912;SDS011;2982;42.684;23.356;2023-07-29T11:11:08;3.90;;;0.60;;
5912;SDS011;2982;42.684;23.356;2023-07-29T11:13:37;0.50;;;0.50;;
5912;SDS011;2982;42.684;23.356;2023-07-29T11:16:03;0.68;;;0.68;;
5912;SDS011;2982;42.684;23.356;2023-07-29T11:18:34;0.30;;;0.30;;
5912;SDS011;2982;42.684;23.356;2023-07-29T11:21:00;2.08;;;0.50;;
5912;SDS011;2982;42.684;23.356;2023-07-29T11:23:28;0.50;;;0.50;;
5912;SDS011;2982;42.684;23.356;2023-07-29T11:25:54;0.52;;;0.52;;
5912;SDS011;2982;42.684;23.356;2023-07-29T11:28:20;0.47;;;0.47;;
5912;SDS011;2982;42.684;23.356;2023-07-29T11:30:45;0.50;;;0.50;;
5912;SDS011;2982;42.684;23.356;2023-07-29T11:33:10;0.50;;;0.50;;
5912;SDS011;2982;42.684;23.356;2023-07-29T11:35:37;0.70;;;0.60;;
5912;SDS011;2982;42.684;23.356;2023-07-29T11:38:02;0.82;;;0.82;;
5912;SDS011;2982;42.684;23.356;2023-07-29T11:40:28;0.60;;;0.60;;
5912;SDS011;2982;42.684;23.356;2023-07-29T11:42:53;0.75;;;0.70;;
5912;SDS011;2982;42.684;23.356;2023-07-29T11:45:19;0.63;;;0.50;;
5912;SDS011;2982;42.684;23.356;2023-07-29T11:47:46;0.75;;;0.50;;
5912;SDS011;2982;42.684;23.356;2023-07-29T11:50:12;1.38;;;0.80;;
5912;SDS011;2982;42.684;23.356;2023-07-29T11:52:39;0.70;;;0.70;;
5912;SDS011;2982;42.684;23.356;2023-07-29T11:55:06;1.55;;;0.70;;
5912;SDS011;2982;42.684;23.356;2023-07-29T11:57:33;0.88;;;0.68;;
5912;SDS011;2982;42.684;23.356;2023-07-29T12:00:04;0.70;;;0.70;;
5912;SDS011;2982;42.684;23.356;2023-07-29T12:02:31;2.33;;;0.70;;
5912;SDS011;2982;42.684;23.356;2023-07-29T12:04:57;2.13;;;0.60;;
5912;SDS011;2982;42.684;23.356;2023-07-29T12:07:23;0.98;;;0.88;;
5912;SDS011;2982;42.684;23.356;2023-07-29T12:09:48;2.08;;;0.70;;
5912;SDS011;2982;42.684;23.356;2023-07-29T12:12:15;0.77;;;0.77;;
5912;SDS011;2982;42.684;23.356;2023-07-29T12:14:43;0.70;;;0.70;;
5912;SDS011;2982;42.684;23.356;2023-07-29T12:17:09;0.80;;;0.80;;
5912;SDS011;2982;42.684;23.356;2023-07-29T12:19:37;1.95;;;0.80;;
5912;SDS011;2982;42.684;23.356;2023-07-29T12:22:04;0.60;;;0.60;;
5912;SDS011;2982;42.684;23.356;2023-07-29T12:24:32;0.60;;;0.60;;
5912;SDS011;2982;42.684;23.356;2023-07-29T12:26:58;1.73;;;0.65;;
5912;SDS011;2982;42.684;23.356;2023-07-29T12:29:24;1.95;;;0.90;;
5912;SDS011;2982;42.684;23.356;2023-07-29T12:31:56;0.73;;;0.70;;
5912;SDS011;2982;42.684;23.356;2023-07-29T12:34:24;0.73;;;0.73;;
5912;SDS011;2982;42.684;23.356;2023-07-29T12:36:51;9.32;;;1.17;;
5912;SDS011;2982;42.684;23.356;2023-07-29T12:42:04;1.45;;;1.08;;
5912;SDS011;2982;42.684;23.356;2023-07-29T12:44:31;0.73;;;0.73;;
5912;SDS011;2982;42.684;23.356;2023-07-29T12:46:57;1.00;;;1.00;;
5912;SDS011;2982;42.684;23.356;2023-07-29T12:49:22;1.00;;;0.80;;
5912;SDS011;2982;42.684;23.356;2023-07-29T12:51:48;2.05;;;1.10;;
5912;SDS011;2982;42.684;23.356;2023-07-29T12:54:13;1.10;;;1.10;;
5912;SDS011;2982;42.684;23.356;2023-07-29T12:56:38;1.10;;;1.10;;
5912;SDS011;2982;42.684;23.356;2023-07-29T12:59:04;1.83;;;1.23;;
5912;SDS011;2982;42.684;23.356;2023-07-29T13:01:30;1.10;;;1.00;;
5912;SDS011;2982;42.684;23.356;2023-07-29T13:03:55;1.30;;;1.23;;
5912;SDS011;2982;42.684;23.356;2023-07-29T13:06:21;3.25;;;1.00;;
5912;SDS011;2982;42.684;23.356;2023-07-29T13:08:46;1.13;;;0.80;;
5912;SDS011;2982;42.684;23.356;2023-07-29T13:11:12;0.98;;;0.98;;
5912;SDS011;2982;42.684;23.356;2023-07-29T13:13:38;1.17;;;1.08;;
5912;SDS011;2982;42.684;23.356;2023-07-29T13:16:04;0.70;;;0.70;;
5912;SDS011;2982;42.684;23.356;2023-07-29T13:18:29;1.45;;;0.80;;
5912;SDS011;2982;42.684;23.356;2023-07-29T13:20:54;1.95;;;1.10;;
5912;SDS011;2982;42.684;23.356;2023-07-29T13:23:20;1.42;;;1.20;;
5912;SDS011;2982;42.684;23.356;2023-07-29T13:25:46;2.85;;;1.60;;
5912;SDS011;2982;42.684;23.356;2023-07-29T13:28:11;2.42;;;1.10;;
5912;SDS011;2982;42.684;23.356;2023-07-29T13:30:37;1.10;;;1.00;;
5912;SDS011;2982;42.684;23.356;2023-07-29T13:33:02;1.00;;;0.90;;
5912;SDS011;2982;42.684;23.356;2023-07-29T13:35:28;2.42;;;0.82;;
5912;SDS011;2982;42.684;23.356;2023-07-29T13:37:54;0.77;;;0.77;;
5912;SDS011;2982;42.684;23.356;2023-07-29T13:40:19;3.47;;;0.93;;
5912;SDS011;2982;42.684;23.356;2023-07-29T13:42:45;2.05;;;1.10;;
5912;SDS011;2982;42.684;23.356;2023-07-29T13:45:10;1.50;;;1.17;;
5912;SDS011;2982;42.684;23.356;2023-07-29T13:47:35;1.02;;;0.93;;
5912;SDS011;2982;42.684;23.356;2023-07-29T13:50:01;2.35;;;1.08;;
5912;SDS011;2982;42.684;23.356;2023-07-29T13:52:27;0.77;;;0.77;;
5912;SDS011;2982;42.684;23.356;2023-07-29T13:54:52;0.90;;;0.90;;
5912;SDS011;2982;42.684;23.356;2023-07-29T13:57:17;0.90;;;0.90;;
5912;SDS011;2982;42.684;23.356;2023-07-29T13:59:42;1.33;;;0.98;;
5912;SDS011;2982;42.684;23.356;2023-07-29T14:02:08;1.20;;;1.10;;
5912;SDS011;2982;42.684;23.356;2023-07-29T14:04:33;1.10;;;1.00;;
5912;SDS011;2982;42.684;23.356;2023-07-29T14:06:59;2.28;;;1.10;;
5912;SDS011;2982;42.684;23.356;2023-07-29T14:09:25;1.02;;;1.00;;
5912;SDS011;2982;42.684;23.356;2023-07-29T14:11:51;1.13;;;1.02;;
5912;SDS011;2982;42.684;23.356;2023-07-29T14:14:16;2.38;;;1.20;;
5912;SDS011;2982;42.684;23.356;2023-07-29T14:16:42;2.25;;;1.50;;
5912;SDS011;2982;42.684;23.356;2023-07-29T14:19:07;1.45;;;1.20;;
5912;SDS011;2982;42.684;23.356;2023-07-29T14:21:32;1.98;;;1.00;;
5912;SDS011;2982;42.684;23.356;2023-07-29T14:23:58;1.30;;;0.98;;
5912;SDS011;2982;42.684;23.356;2023-07-29T14:26:23;0.95;;;0.95;;
5912;SDS011;2982;42.684;23.356;2023-07-29T14:28:48;0.90;;;0.90;;
5912;SDS011;2982;42.684;23.356;2023-07-29T14:31:14;1.15;;;1.00;;
5912;SDS011;2982;42.684;23.356;2023-07-29T14:33:39;1.58;;;1.00;;
5912;SDS011;2982;42.684;23.356;2023-07-29T14:36:04;2.00;;;0.60;;
5912;SDS011;2982;42.684;23.356;2023-07-29T14:38:29;1.33;;;1.23;;
5912;SDS011;2982;42.684;23.356;2023-07-29T14:40:55;2.90;;;1.17;;
5912;SDS011;2982;42.684;23.356;2023-07-29T14:43:20;1.42;;;0.90;;
5912;SDS011;2982;42.684;23.356;2023-07-29T14:45:46;7.07;;;1.17;;
5912;SDS011;2982;42.684;23.356;2023-07-29T14:48:11;1.52;;;1.42;;
5912;SDS011;2982;42.684;23.356;2023-07-29T14:50:36;3.75;;;1.20;;
5912;SDS011;2982;42.684;23.356;2023-07-29T14:53:01;3.15;;;1.40;;
5912;SDS011;2982;42.684;23.356;2023-07-29T14:55:27;1.20;;;1.00;;
5912;SDS011;2982;42.684;23.356;2023-07-29T14:57:52;1.50;;;1.40;;
5912;SDS011;2982;42.684;23.356;2023-07-29T15:00:17;1.70;;;0.95;;
5912;SDS011;2982;42.684;23.356;2023-07-29T15:02:42;9.30;;;1.30;;
5912;SDS011;2982;42.684;23.356;2023-07-29T15:05:08;5.03;;;0.93;;